createdAt,value
2019-04-16T00:02:03.836Z,1020
2019-04-16T00:07:34.796Z,1020.2
2019-04-16T00:13:05.871Z,1020.2
2019-04-16T00:18:36.724Z,1020.1
2019-04-16T00:24:07.741Z,1020
2019-04-16T00:29:39.680Z,1019.9
2019-04-16T00:35:09.706Z,1019.9
2019-04-16T00:40:40.594Z,1020
2019-04-16T00:46:12.227Z,1019.8
2019-04-16T00:51:42.585Z,1020
2019-04-16T00:57:17.622Z,1019.8
2019-04-16T01:02:46.889Z,1020
2019-04-16T01:08:15.446Z,1019.9
2019-04-16T01:13:46.417Z,1020
2019-04-16T01:19:17.332Z,1020.1
2019-04-16T01:24:51.332Z,1020.3
2019-04-16T01:30:19.154Z,1020.4
2019-04-16T01:35:51.469Z,1020.4
2019-04-16T01:41:21.904Z,1020.4
2019-04-16T01:46:51.769Z,1020.5
2019-04-16T01:52:22.598Z,1020.5
2019-04-16T01:57:53.474Z,1020.7
2019-04-16T02:03:24.433Z,1020.7
2019-04-16T02:08:55.233Z,1020.7
2019-04-16T02:14:26.035Z,1020.8
2019-04-16T02:19:56.891Z,1020.7
2019-04-16T02:25:27.844Z,1020.6
2019-04-16T02:30:58.721Z,1020.6
2019-04-16T02:36:29.655Z,1020.6
2019-04-16T02:42:00.872Z,1020.6
2019-04-16T02:47:31.889Z,1020.6
2019-04-16T02:53:02.360Z,1020.8
2019-04-16T02:58:34.274Z,1020.7
2019-04-16T03:04:04.151Z,1020.7
2019-04-16T03:09:39.715Z,1020.7
2019-04-16T03:15:05.902Z,1020.6
2019-04-16T03:20:36.826Z,1020.4
2019-04-16T03:26:07.796Z,1020.6
2019-04-16T03:31:38.728Z,1020.6
2019-04-16T03:37:09.597Z,1020.6
2019-04-16T03:42:40.539Z,1020.7
2019-04-16T03:48:11.532Z,1020.6
2019-04-16T03:53:42.453Z,1020.7
2019-04-16T03:59:13.351Z,1020.7
2019-04-16T04:04:44.334Z,1020.7
2019-04-16T04:10:28.955Z,1020.5
2019-04-16T04:15:46.191Z,1020.5
2019-04-16T04:21:20.892Z,1020.6
2019-04-16T04:26:48.023Z,1020.7
2019-04-16T04:32:18.997Z,1020.7
2019-04-16T04:37:49.895Z,1020.8
2019-04-16T04:43:20.910Z,1020.7
2019-04-16T04:48:54.892Z,1020.7
2019-04-16T04:54:23.477Z,1020.7
2019-04-16T04:59:53.733Z,1020.8
2019-04-16T05:05:25.717Z,1020.9
2019-04-16T05:10:59.046Z,1020.9
2019-04-16T05:16:26.689Z,1020.8
2019-04-16T05:21:57.769Z,1021
2019-04-16T05:27:29.851Z,1021
2019-04-16T05:33:04.844Z,1020.9
2019-04-16T05:38:31.425Z,1020.8
2019-04-16T05:44:02.538Z,1020.8
2019-04-16T05:49:33.665Z,1020.9
2019-04-16T05:55:04.773Z,1020.9
2019-04-16T06:00:38.450Z,1020.8
2019-04-16T06:06:07.901Z,1021
2019-04-16T06:11:39.911Z,1020.9
2019-04-16T06:17:11.858Z,1020.9
2019-04-16T06:22:44.107Z,1020.9
2019-04-16T06:28:15.992Z,1020.8
2019-04-16T06:33:48.098Z,1020.7
2019-04-16T06:39:20.132Z,1020.6
2019-04-16T06:44:52.335Z,1020.6
2019-04-16T06:50:31.819Z,1020.4
2019-04-16T06:55:56.990Z,1020.3
2019-04-16T07:01:29.316Z,1020.3
2019-04-16T07:07:01.676Z,1020.3
2019-04-16T07:12:37.879Z,1020
2019-04-16T07:18:06.707Z,1019.6
2019-04-16T07:23:39.270Z,1019.6
2019-04-16T07:29:11.591Z,1019.5
2019-04-16T07:34:44.285Z,1019.6
2019-04-16T07:40:17.107Z,1019.7
2019-04-16T07:45:49.848Z,1019.8
2019-04-16T07:51:22.589Z,1019.8
2019-04-16T07:56:55.194Z,1019.7
2019-04-16T08:02:27.884Z,1019.6
2019-04-16T08:08:00.713Z,1019.5
2019-04-16T08:13:34.321Z,1019.5
2019-04-16T08:19:05.739Z,1019.4
2019-04-16T08:24:38.213Z,1019.4
2019-04-16T08:30:11.101Z,1019.5
2019-04-16T08:35:43.208Z,1019.3
2019-04-16T08:41:19.678Z,1019.4
2019-04-16T08:46:48.353Z,1019.3
2019-04-16T08:52:19.806Z,1019.2
2019-04-16T08:57:52.103Z,1019
2019-04-16T09:03:26.754Z,1019
2019-04-16T09:09:11.041Z,1018.5
2019-04-16T09:14:31.610Z,1018.6
2019-04-16T09:20:06.365Z,1018.4
2019-04-16T09:25:38.964Z,1018
2019-04-16T09:31:13.015Z,1018.2
2019-04-16T09:36:46.998Z,1018.2
2019-04-16T09:42:20.910Z,1018.4
2019-04-16T09:47:54.784Z,1018.3
2019-04-16T09:53:33.892Z,1018.4
2019-04-16T09:59:02.395Z,1018.4
2019-04-16T10:04:36.053Z,1018.4
2019-04-16T10:10:09.612Z,1018.3
2019-04-16T10:15:43.429Z,1018.2
2019-04-16T10:21:19.606Z,1018.3
2019-04-16T10:26:51.137Z,1018.3
2019-04-16T10:32:24.996Z,1018.2
2019-04-16T10:37:58.903Z,1018.2
2019-04-16T10:43:43.791Z,1018
2019-04-16T10:49:06.612Z,1018
2019-04-16T10:54:40.640Z,1018
2019-04-16T11:00:14.805Z,1017.7
2019-04-16T11:05:48.621Z,1017.8
2019-04-16T11:11:22.699Z,1017.7
2019-04-16T11:16:56.835Z,1017.8
2019-04-16T11:22:30.850Z,1017.7
2019-04-16T11:28:04.766Z,1017.6
2019-04-16T11:33:38.824Z,1017.8
2019-04-16T11:39:12.785Z,1017.6
2019-04-16T11:44:50.108Z,1017.6
2019-04-16T11:50:20.936Z,1017.7
2019-04-16T11:55:55.139Z,1017.7
2019-04-16T12:01:28.736Z,1017.7
2019-04-16T12:07:05.285Z,1017.8
2019-04-16T12:12:36.421Z,1017.8
2019-04-16T12:18:09.995Z,1017.9
2019-04-16T12:23:43.690Z,1018
2019-04-16T12:29:17.208Z,1017.9
2019-04-16T12:34:51.258Z,1018
2019-04-16T12:40:24.426Z,1018
2019-04-16T12:45:57.960Z,1018.2
2019-04-16T12:51:32.336Z,1018.2
2019-04-16T12:57:04.919Z,1018.2
2019-04-16T13:02:38.297Z,1018.2
2019-04-16T13:08:11.700Z,1018.2
2019-04-16T13:13:44.945Z,1018.4
2019-04-16T13:19:18.296Z,1018.4
2019-04-16T13:24:51.606Z,1018.4
2019-04-16T13:30:24.922Z,1018.4
2019-04-16T13:35:58.196Z,1018.3
2019-04-16T13:41:31.619Z,1018.4
2019-04-16T13:47:04.969Z,1018.3
2019-04-16T13:52:40.168Z,1018.4
2019-04-16T13:58:11.651Z,1018.4
2019-04-16T14:03:45.027Z,1018.3
2019-04-16T14:09:18.320Z,1018.3
2019-04-16T14:14:51.671Z,1018.3
2019-04-16T14:20:25.086Z,1018.4
2019-04-16T14:25:58.668Z,1018.4
2019-04-16T14:31:31.662Z,1018.5
2019-04-16T14:37:04.846Z,1018.6
2019-04-16T14:42:38.047Z,1018.5
2019-04-16T14:48:11.275Z,1018.5
2019-04-16T14:53:44.529Z,1018.6
2019-04-16T14:59:30.227Z,1018.5
2019-04-16T15:04:50.981Z,1018.6
2019-04-16T15:10:24.134Z,1018.7
2019-04-16T15:16:06.551Z,1018.7
2019-04-16T15:21:30.577Z,1018.6
2019-04-16T15:27:03.731Z,1018.8
2019-04-16T15:32:36.903Z,1018.7
2019-04-16T15:38:10.011Z,1018.7
2019-04-16T15:43:43.139Z,1018.9
2019-04-16T15:49:16.227Z,1019
2019-04-16T15:54:49.249Z,1019.2
2019-04-16T16:00:22.135Z,1019.2
2019-04-16T16:05:55.148Z,1019.4
2019-04-16T16:11:27.999Z,1019.5
2019-04-16T16:17:00.869Z,1019.5
2019-04-16T16:22:33.667Z,1019.7
2019-04-16T16:28:06.476Z,1019.8
2019-04-16T16:33:41.797Z,1019.9
2019-04-16T16:39:12.071Z,1020
2019-04-16T16:44:44.787Z,1020
2019-04-16T16:50:17.493Z,1020.2
2019-04-16T16:55:49.976Z,1020.2
2019-04-16T17:06:54.724Z,1020.4
2019-04-16T17:12:27.015Z,1020.5
2019-04-16T17:17:58.907Z,1020.6
2019-04-16T17:23:30.665Z,1020.7
2019-04-16T17:29:03.312Z,1020.8
2019-04-16T17:34:38.604Z,1020.8
2019-04-16T17:40:08.178Z,1020.9
2019-04-16T17:45:40.687Z,1020.9
2019-04-16T17:51:13.096Z,1021.1
2019-04-16T17:56:45.139Z,1021.1
2019-04-16T18:02:17.173Z,1021.2
2019-04-16T18:07:49.292Z,1021.3
2019-04-16T18:13:21.258Z,1021.4
2019-04-16T18:18:53.409Z,1021.5
2019-04-16T18:24:24.929Z,1021.5
2019-04-16T18:29:57.131Z,1021.6
2019-04-16T18:35:29.549Z,1021.6
2019-04-16T18:41:03.916Z,1021.7
2019-04-16T18:46:33.701Z,1021.9
2019-04-16T18:51:58.752Z,1022
2019-04-16T18:57:30.378Z,1022
2019-04-16T19:03:02.243Z,1022.2
2019-04-16T19:08:41.268Z,1022.3
2019-04-16T19:14:05.013Z,1022.3
2019-04-16T19:19:36.610Z,1022.5
2019-04-16T19:25:08.929Z,1022.5
2019-04-16T19:30:39.632Z,1022.7
2019-04-16T19:36:11.194Z,1022.7
2019-04-16T19:41:42.772Z,1022.7
2019-04-16T19:47:14.308Z,1022.8
2019-04-16T19:52:45.903Z,1022.8
2019-04-16T19:58:17.478Z,1022.8
2019-04-16T20:03:48.999Z,1022.9
2019-04-16T20:09:14.581Z,1022.9
2019-04-16T20:14:46.072Z,1022.9
2019-04-16T20:20:17.618Z,1022.9
2019-04-16T20:25:49.223Z,1022.9
2019-04-16T20:31:20.796Z,1022.8
2019-04-16T20:36:54.989Z,1022.9
2019-04-16T20:42:23.895Z,1022.8
2019-04-16T20:47:55.386Z,1022.8
2019-04-16T20:53:26.936Z,1022.8
2019-04-16T20:59:03.085Z,1022.8
2019-04-16T21:04:30.069Z,1022.8
2019-04-16T21:10:03.490Z,1022.8
2019-04-16T21:15:33.118Z,1022.8
2019-04-16T21:21:04.622Z,1022.8
2019-04-16T21:26:36.101Z,1022.7
2019-04-16T21:32:10.071Z,1022.7
2019-04-16T21:37:39.269Z,1022.8
2019-04-16T21:43:10.666Z,1022.8
2019-04-16T21:48:42.278Z,1022.8
2019-04-16T21:54:13.718Z,1022.8
2019-04-16T21:59:45.237Z,1022.8
2019-04-16T22:05:17.764Z,1022.8
2019-04-16T22:10:48.269Z,1022.8
2019-04-16T22:16:19.759Z,1022.8
2019-04-16T22:21:51.292Z,1022.8
2019-04-16T22:27:22.829Z,1022.7
2019-04-16T22:32:48.065Z,1022.8
2019-04-16T22:38:19.548Z,1022.8
2019-04-16T22:43:51.086Z,1022.9
2019-04-16T22:49:23.267Z,1022.8
2019-04-16T22:54:54.113Z,1022.9
2019-04-16T23:00:25.599Z,1022.9
2019-04-16T23:05:57.021Z,1022.9
2019-04-16T23:11:28.618Z,1022.9
2019-04-16T23:17:00.076Z,1022.9
2019-04-16T23:22:31.552Z,1023
2019-04-16T23:28:03.077Z,1023
2019-04-16T23:33:34.600Z,1023
2019-04-16T23:39:06.087Z,1022.9
2019-04-16T23:44:37.571Z,1022.9
2019-04-16T23:50:09.181Z,1022.9
2019-04-16T23:55:40.499Z,1022.9
